»·PEaware :: DUSTY21 KLSV-KLSV

DUSTY21 :: KLSV-KLSV

FLIGHT INFORMATION

Flight Status: Arrived
Operator: Unknown
More flights by this operator :: More flights under this callsign
Pilot: Sean B. (13609)
Aircraft: FAIRCHILD A-10 THUNDERBOLT 2
(A10)
More flights by this aircraft type
Origin: KLSV Nellis AFB
United States
Destination: KLSV Nellis AFB
United States
More flights between these airports :: More routes between these airports
Route: +TAC WEST
File this flight plan on PilotEdge
Remarks:
Altitude:
(Current/Filed)
0ft
Speed:
(Current/Filed)
0kts
Departed: 13-Jan-18 02:33 PM
Arrived: 13-Jan-18 03:35 PM
Distance/Time
Traveled:
1nm/1:02
Distance/Time
To Go:
Arrived

Flight Plot

Page will automatically refresh every two minutes.

Flight plan parsing failed; only flown route is shown


Map Options




Map Legend


Flown Route
Filed Route
Departure Airport
Arrival Airport
Navaid (VOR, NDB)
Fix

Horizontal Profiles

Position Reports

Time Latitude Longitude Heading Altitude Ground
Speed
13-Jan-18 14:31 36.222387 -115.039689 311 1848ft 0kts
13-Jan-18 14:32 36.222387 -115.039689 311 1848ft 0kts
13-Jan-18 14:33 36.222387 -115.039689 311 1848ft 0kts
13-Jan-18 14:34 36.222387 -115.039689 311 1848ft 0kts
13-Jan-18 14:35 36.223586 -115.042208 311 1848ft 14kts
13-Jan-18 14:36 36.224386 -115.043266 321 1848ft 0kts
13-Jan-18 14:37 36.224386 -115.043266 322 1848ft 0kts
13-Jan-18 14:38 36.224691 -115.043546 322 1848ft 13kts
13-Jan-18 14:39 36.234272 -115.033917 41 1851ft 136kts
13-Jan-18 14:40 36.272433 -114.992355 39 2632ft 212kts
13-Jan-18 14:41 36.302893 -115.033210 277 3656ft 221kts
13-Jan-18 14:42 36.313158 -115.114260 277 4626ft 259kts
13-Jan-18 14:43 36.350104 -115.189637 303 4718ft 271kts
13-Jan-18 14:44 36.393273 -115.267056 302 4598ft 264kts
13-Jan-18 14:45 36.449479 -115.317086 329 4606ft 255kts
13-Jan-18 14:46 36.512061 -115.359416 329 4615ft 252kts
13-Jan-18 14:47 36.571291 -115.392119 29 5847ft 219kts
13-Jan-18 14:48 36.624613 -115.356228 25 7909ft 212kts
13-Jan-18 14:49 36.679291 -115.321089 29 9602ft 219kts
13-Jan-18 14:50 36.738183 -115.296301 6 11209ft 222kts
13-Jan-18 14:51 36.803728 -115.288660 0 11862ft 270kts
13-Jan-18 14:52 36.878531 -115.283451 0 13297ft 247kts
13-Jan-18 14:53 36.951111 -115.277668 1 14274ft 271kts
13-Jan-18 14:54 37.031418 -115.272412 1 14275ft 299kts
13-Jan-18 14:55 36.990842 -115.245111 176 14638ft 260kts
13-Jan-18 14:56 36.943507 -115.294155 271 12076ft 303kts
13-Jan-18 14:57 36.969929 -115.234309 82 12801ft 262kts
13-Jan-18 14:58 36.972240 -115.222495 242 9006ft 279kts
13-Jan-18 14:59 36.964369 -115.256242 45 8244ft 232kts
13-Jan-18 15:00 37.002418 -115.198704 311 10033ft 181kts
13-Jan-18 15:01 36.948280 -115.230444 96 5831ft 241kts
13-Jan-18 15:02 37.006208 -115.235270 14 7756ft 148kts
13-Jan-18 15:03 36.978350 -115.228606 190 3914ft 259kts
13-Jan-18 15:04 36.978101 -115.218440 308 5338ft 235kts
13-Jan-18 15:05 36.981027 -115.253194 76 7009ft 199kts
13-Jan-18 15:06 36.989854 -115.182208 356 6162ft 180kts
13-Jan-18 15:07 36.977057 -115.243866 252 4495ft 243kts
13-Jan-18 15:08 37.009649 -115.299961 353 5072ft 289kts
13-Jan-18 15:09 36.999798 -115.251683 130 8158ft 189kts
13-Jan-18 15:10 36.952751 -115.206804 186 7673ft 185kts
13-Jan-18 15:11 36.917435 -115.266339 274 9762ft 163kts
13-Jan-18 15:12 36.969034 -115.280701 66 7913ft 321kts
13-Jan-18 15:13 36.951902 -115.214476 170 6167ft 293kts
13-Jan-18 15:14 36.911529 -115.191799 351 7123ft 186kts
13-Jan-18 15:15 36.941683 -115.240984 230 6667ft 173kts
13-Jan-18 15:16 36.939593 -115.192121 162 6029ft 146kts
13-Jan-18 15:17 36.912959 -115.233174 103 6304ft 190kts
13-Jan-18 15:18 36.936240 -115.224774 114 4634ft 211kts
13-Jan-18 15:19 36.938741 -115.168856 36 6433ft 179kts
13-Jan-18 15:20 36.971833 -115.135623 87 9481ft 158kts
13-Jan-18 15:21 36.983417 -115.067281 75 11616ft 219kts
13-Jan-18 15:22 36.999810 -114.980662 76 12548ft 301kts
13-Jan-18 15:23 37.020842 -114.873537 73 12510ft 322kts
13-Jan-18 15:24 37.043914 -114.765430 73 12510ft 321kts
13-Jan-18 15:25 37.066897 -114.657231 73 12510ft 321kts
13-Jan-18 15:26 37.067833 -114.558942 179 12492ft 308kts
13-Jan-18 15:27 36.980961 -114.564037 181 12521ft 316kts
13-Jan-18 15:28 36.891456 -114.569083 181 12519ft 323kts
13-Jan-18 15:29 36.800983 -114.574115 181 12519ft 324kts
13-Jan-18 15:30 36.710560 -114.576408 179 12523ft 324kts
13-Jan-18 15:31 36.631141 -114.595073 221 12576ft 288kts
13-Jan-18 15:32 36.570072 -114.664024 220 12570ft 300kts
13-Jan-18 15:33 36.507612 -114.733776 219 12164ft 304kts
13-Jan-18 15:34 36.448024 -114.801771 220 10028ft 276kts
13-Jan-18 15:35 36.391225 -114.864209 222 7949ft 270kts
13-Jan-18 15:36 36.337854 -114.924258 220 6117ft 254kts
13-Jan-18 15:37 36.286184 -114.981766 222 4741ft 240kts
13-Jan-18 15:38 36.236104 -115.037102 255 3224ft 262kts
13-Jan-18 15:39 36.279298 -115.002542 107 3853ft 210kts
13-Jan-18 15:40 36.239912 -115.027991 219 1855ft 156kts
13-Jan-18 15:41 36.225061 -115.043732 175 1849ft 26kts
13-Jan-18 15:42 36.222273 -115.039508 320 1849ft 7kts
13-Jan-18 15:43 36.222372 -115.039665 309 1849ft 0kts
13-Jan-18 15:44 36.222372 -115.039665 309 1849ft 0kts
13-Jan-18 15:49 36.222386 -115.039689 311 1848ft 0kts

Navigation Log

Ident Type
Flight plan parsing failed, navigation log unavailable